sensor_id;sensor_type;location;lat;lon;timestamp;P1;durP1;ratioP1;P2;durP2;ratioP2
36709;SDS011;22694;51.040;3.684;2023-02-28T00:01:20;2.08;;;1.00;;
36709;SDS011;22694;51.040;3.684;2023-02-28T00:03:47;1.85;;;1.27;;
36709;SDS011;22694;51.040;3.684;2023-02-28T00:06:13;1.75;;;1.23;;
36709;SDS011;22694;51.040;3.684;2023-02-28T00:08:39;0.88;;;0.80;;
36709;SDS011;22694;51.040;3.684;2023-02-28T00:11:05;1.30;;;0.90;;
36709;SDS011;22694;51.040;3.684;2023-02-28T00:13:33;1.58;;;1.02;;
36709;SDS011;22694;51.040;3.684;2023-02-28T00:16:04;2.88;;;1.17;;
36709;SDS011;22694;51.040;3.684;2023-02-28T00:18:34;2.42;;;1.10;;
36709;SDS011;22694;51.040;3.684;2023-02-28T00:21:00;1.30;;;0.90;;
36709;SDS011;22694;51.040;3.684;2023-02-28T00:23:26;1.35;;;0.95;;
36709;SDS011;22694;51.040;3.684;2023-02-28T00:25:52;0.70;;;0.70;;
36709;SDS011;22694;51.040;3.684;2023-02-28T00:28:18;1.33;;;0.95;;
36709;SDS011;22694;51.040;3.684;2023-02-28T00:30:45;1.10;;;0.98;;
36709;SDS011;22694;51.040;3.684;2023-02-28T00:33:10;1.58;;;1.10;;
36709;SDS011;22694;51.040;3.684;2023-02-28T00:35:36;1.20;;;0.75;;
36709;SDS011;22694;51.040;3.684;2023-02-28T00:38:02;2.03;;;1.20;;
36709;SDS011;22694;51.040;3.684;2023-02-28T00:40:28;2.10;;;1.20;;
36709;SDS011;22694;51.040;3.684;2023-02-28T00:42:53;1.02;;;0.80;;
36709;SDS011;22694;51.040;3.684;2023-02-28T00:45:20;1.55;;;1.00;;
36709;SDS011;22694;51.040;3.684;2023-02-28T00:47:45;2.08;;;0.80;;
36709;SDS011;22694;51.040;3.684;2023-02-28T00:50:14;1.88;;;1.10;;
36709;SDS011;22694;51.040;3.684;2023-02-28T00:52:41;1.40;;;1.00;;
36709;SDS011;22694;51.040;3.684;2023-02-28T00:55:07;2.63;;;1.20;;
36709;SDS011;22694;51.040;3.684;2023-02-28T00:57:33;1.40;;;1.10;;
36709;SDS011;22694;51.040;3.684;2023-02-28T00:59:59;1.00;;;0.90;;
36709;SDS011;22694;51.040;3.684;2023-02-28T01:02:24;1.20;;;1.00;;
36709;SDS011;22694;51.040;3.684;2023-02-28T01:04:50;1.08;;;0.93;;
36709;SDS011;22694;51.040;3.684;2023-02-28T01:07:15;1.88;;;1.00;;
36709;SDS011;22694;51.040;3.684;2023-02-28T01:09:41;3.03;;;1.02;;
36709;SDS011;22694;51.040;3.684;2023-02-28T01:12:07;1.45;;;1.10;;
36709;SDS011;22694;51.040;3.684;2023-02-28T01:14:33;1.63;;;1.17;;
36709;SDS011;22694;51.040;3.684;2023-02-28T01:17:00;1.80;;;1.20;;
36709;SDS011;22694;51.040;3.684;2023-02-28T01:19:26;1.40;;;1.02;;
36709;SDS011;22694;51.040;3.684;2023-02-28T01:21:52;1.52;;;1.08;;
36709;SDS011;22694;51.040;3.684;2023-02-28T01:24:17;1.63;;;1.23;;
36709;SDS011;22694;51.040;3.684;2023-02-28T01:26:43;1.38;;;0.90;;
36709;SDS011;22694;51.040;3.684;2023-02-28T01:29:09;2.78;;;1.30;;
36709;SDS011;22694;51.040;3.684;2023-02-28T01:31:34;2.67;;;1.30;;
36709;SDS011;22694;51.040;3.684;2023-02-28T01:34:00;2.42;;;1.40;;
36709;SDS011;22694;51.040;3.684;2023-02-28T01:36:26;2.25;;;1.13;;
36709;SDS011;22694;51.040;3.684;2023-02-28T01:38:52;1.88;;;1.40;;
36709;SDS011;22694;51.040;3.684;2023-02-28T01:41:27;1.10;;;0.98;;
36709;SDS011;22694;51.040;3.684;2023-02-28T01:46:28;1.40;;;1.02;;
36709;SDS011;22694;51.040;3.684;2023-02-28T01:49:05;1.50;;;1.40;;
36709;SDS011;22694;51.040;3.684;2023-02-28T01:51:41;2.63;;;1.30;;
36709;SDS011;22694;51.040;3.684;2023-02-28T01:54:24;1.50;;;1.15;;
36709;SDS011;22694;51.040;3.684;2023-02-28T01:57:03;1.40;;;1.17;;
36709;SDS011;22694;51.040;3.684;2023-02-28T01:59:38;1.70;;;1.33;;
36709;SDS011;22694;51.040;3.684;2023-02-28T02:02:11;1.45;;;1.33;;
36709;SDS011;22694;51.040;3.684;2023-02-28T02:04:42;1.77;;;1.42;;
36709;SDS011;22694;51.040;3.684;2023-02-28T02:07:18;2.08;;;1.50;;
36709;SDS011;22694;51.040;3.684;2023-02-28T02:09:44;2.63;;;1.55;;
36709;SDS011;22694;51.040;3.684;2023-02-28T02:12:31;2.03;;;1.33;;
36709;SDS011;22694;51.040;3.684;2023-02-28T02:15:15;1.50;;;1.27;;
36709;SDS011;22694;51.040;3.684;2023-02-28T02:17:51;1.63;;;1.42;;
36709;SDS011;22694;51.040;3.684;2023-02-28T02:23:09;1.30;;;1.20;;
36709;SDS011;22694;51.040;3.684;2023-02-28T02:25:54;2.63;;;1.75;;
36709;SDS011;22694;51.040;3.684;2023-02-28T02:29:01;1.23;;;1.13;;
36709;SDS011;22694;51.040;3.684;2023-02-28T02:39:47;2.22;;;1.58;;
36709;SDS011;22694;51.040;3.684;2023-02-28T02:42:29;2.13;;;1.30;;
36709;SDS011;22694;51.040;3.684;2023-02-28T02:44:58;1.73;;;1.60;;
36709;SDS011;22694;51.040;3.684;2023-02-28T02:47:37;3.03;;;1.35;;
36709;SDS011;22694;51.040;3.684;2023-02-28T02:50:06;2.78;;;1.40;;
36709;SDS011;22694;51.040;3.684;2023-02-28T02:52:38;3.08;;;1.60;;
36709;SDS011;22694;51.040;3.684;2023-02-28T02:57:38;3.00;;;1.50;;
36709;SDS011;22694;51.040;3.684;2023-02-28T03:00:08;3.67;;;1.70;;
36709;SDS011;22694;51.040;3.684;2023-02-28T03:02:36;1.55;;;1.17;;
36709;SDS011;22694;51.040;3.684;2023-02-28T03:05:08;3.08;;;1.85;;
36709;SDS011;22694;51.040;3.684;2023-02-28T03:07:43;1.92;;;1.58;;
36709;SDS011;22694;51.040;3.684;2023-02-28T03:15:57;3.15;;;1.70;;
36709;SDS011;22694;51.040;3.684;2023-02-28T03:27:27;1.73;;;1.48;;
36709;SDS011;22694;51.040;3.684;2023-02-28T03:35:23;2.38;;;1.88;;
36709;SDS011;22694;51.040;3.684;2023-02-28T03:37:55;3.30;;;1.70;;
36709;SDS011;22694;51.040;3.684;2023-02-28T03:40:27;2.05;;;1.27;;
36709;SDS011;22694;51.040;3.684;2023-02-28T03:42:59;1.60;;;1.50;;
36709;SDS011;22694;51.040;3.684;2023-02-28T03:45:29;2.20;;;1.70;;
36709;SDS011;22694;51.040;3.684;2023-02-28T03:48:00;3.15;;;1.95;;
36709;SDS011;22694;51.040;3.684;2023-02-28T03:50:41;1.30;;;1.20;;
36709;SDS011;22694;51.040;3.684;2023-02-28T03:55:39;2.55;;;1.58;;
36709;SDS011;22694;51.040;3.684;2023-02-28T04:01:04;2.40;;;1.67;;
36709;SDS011;22694;51.040;3.684;2023-02-28T04:03:44;2.28;;;1.60;;
36709;SDS011;22694;51.040;3.684;2023-02-28T04:06:13;2.55;;;1.65;;
36709;SDS011;22694;51.040;3.684;2023-02-28T04:08:42;2.88;;;1.70;;
36709;SDS011;22694;51.040;3.684;2023-02-28T04:11:17;2.15;;;1.73;;
36709;SDS011;22694;51.040;3.684;2023-02-28T04:13:43;2.08;;;1.73;;
36709;SDS011;22694;51.040;3.684;2023-02-28T04:16:09;1.60;;;1.42;;
36709;SDS011;22694;51.040;3.684;2023-02-28T04:18:37;2.22;;;1.88;;
36709;SDS011;22694;51.040;3.684;2023-02-28T04:21:03;2.47;;;1.92;;
36709;SDS011;22694;51.040;3.684;2023-02-28T04:23:30;2.05;;;1.52;;
36709;SDS011;22694;51.040;3.684;2023-02-28T04:25:56;2.08;;;1.67;;
36709;SDS011;22694;51.040;3.684;2023-02-28T04:28:22;1.88;;;1.58;;
36709;SDS011;22694;51.040;3.684;2023-02-28T04:30:47;2.78;;;1.80;;
36709;SDS011;22694;51.040;3.684;2023-02-28T04:33:19;2.90;;;1.65;;
36709;SDS011;22694;51.040;3.684;2023-02-28T04:35:45;2.30;;;1.65;;
36709;SDS011;22694;51.040;3.684;2023-02-28T04:38:10;2.88;;;1.85;;
36709;SDS011;22694;51.040;3.684;2023-02-28T04:40:36;2.40;;;1.90;;
36709;SDS011;22694;51.040;3.684;2023-02-28T04:43:02;2.40;;;2.10;;
36709;SDS011;22694;51.040;3.684;2023-02-28T04:45:28;2.53;;;2.00;;
36709;SDS011;22694;51.040;3.684;2023-02-28T04:47:57;1.90;;;1.45;;
36709;SDS011;22694;51.040;3.684;2023-02-28T04:50:22;2.85;;;1.90;;
36709;SDS011;22694;51.040;3.684;2023-02-28T04:52:48;4.15;;;1.70;;
36709;SDS011;22694;51.040;3.684;2023-02-28T04:55:14;2.28;;;1.60;;
36709;SDS011;22694;51.040;3.684;2023-02-28T04:57:40;2.92;;;1.60;;
36709;SDS011;22694;51.040;3.684;2023-02-28T05:00:07;1.88;;;1.65;;
36709;SDS011;22694;51.040;3.684;2023-02-28T05:02:36;2.47;;;1.90;;
36709;SDS011;22694;51.040;3.684;2023-02-28T05:05:03;2.70;;;2.00;;
36709;SDS011;22694;51.040;3.684;2023-02-28T05:07:29;1.92;;;1.73;;
36709;SDS011;22694;51.040;3.684;2023-02-28T05:09:55;1.80;;;1.40;;
36709;SDS011;22694;51.040;3.684;2023-02-28T05:12:21;1.40;;;1.30;;
36709;SDS011;22694;51.040;3.684;2023-02-28T05:14:46;2.83;;;1.90;;
36709;SDS011;22694;51.040;3.684;2023-02-28T05:17:12;2.42;;;1.70;;
36709;SDS011;22694;51.040;3.684;2023-02-28T05:19:37;2.03;;;1.60;;
36709;SDS011;22694;51.040;3.684;2023-02-28T05:22:03;2.00;;;1.80;;
36709;SDS011;22694;51.040;3.684;2023-02-28T05:24:29;2.08;;;1.80;;
36709;SDS011;22694;51.040;3.684;2023-02-28T05:26:54;2.53;;;1.85;;
36709;SDS011;22694;51.040;3.684;2023-02-28T05:29:20;1.88;;;1.70;;
36709;SDS011;22694;51.040;3.684;2023-02-28T05:31:46;2.78;;;1.85;;
36709;SDS011;22694;51.040;3.684;2023-02-28T05:34:12;2.38;;;1.73;;
36709;SDS011;22694;51.040;3.684;2023-02-28T05:36:40;2.47;;;1.70;;
36709;SDS011;22694;51.040;3.684;2023-02-28T05:39:06;2.38;;;1.70;;
36709;SDS011;22694;51.040;3.684;2023-02-28T05:41:41;3.13;;;1.70;;
36709;SDS011;22694;51.040;3.684;2023-02-28T05:44:07;2.17;;;1.90;;
36709;SDS011;22694;51.040;3.684;2023-02-28T05:46:33;2.03;;;1.63;;
36709;SDS011;22694;51.040;3.684;2023-02-28T05:48:59;2.35;;;1.55;;
36709;SDS011;22694;51.040;3.684;2023-02-28T05:51:25;3.15;;;1.90;;
36709;SDS011;22694;51.040;3.684;2023-02-28T05:53:54;2.95;;;2.05;;
36709;SDS011;22694;51.040;3.684;2023-02-28T05:56:26;2.08;;;1.80;;
36709;SDS011;22694;51.040;3.684;2023-02-28T05:58:53;2.95;;;1.80;;
36709;SDS011;22694;51.040;3.684;2023-02-28T06:01:24;2.22;;;1.80;;
36709;SDS011;22694;51.040;3.684;2023-02-28T06:04:01;2.38;;;1.75;;
36709;SDS011;22694;51.040;3.684;2023-02-28T06:06:27;4.88;;;2.00;;
36709;SDS011;22694;51.040;3.684;2023-02-28T06:08:54;3.10;;;1.98;;
36709;SDS011;22694;51.040;3.684;2023-02-28T06:11:21;2.50;;;1.77;;
36709;SDS011;22694;51.040;3.684;2023-02-28T06:13:52;2.53;;;1.67;;
36709;SDS011;22694;51.040;3.684;2023-02-28T06:16:20;2.00;;;1.50;;
36709;SDS011;22694;51.040;3.684;2023-02-28T06:18:46;2.38;;;1.73;;
36709;SDS011;22694;51.040;3.684;2023-02-28T06:21:12;1.95;;;1.60;;
36709;SDS011;22694;51.040;3.684;2023-02-28T06:23:38;2.53;;;1.58;;
36709;SDS011;22694;51.040;3.684;2023-02-28T06:26:04;1.60;;;1.50;;
36709;SDS011;22694;51.040;3.684;2023-02-28T06:28:30;2.50;;;1.60;;
36709;SDS011;22694;51.040;3.684;2023-02-28T06:30:56;2.65;;;1.60;;
36709;SDS011;22694;51.040;3.684;2023-02-28T06:33:22;2.17;;;1.80;;
36709;SDS011;22694;51.040;3.684;2023-02-28T06:35:51;2.13;;;1.73;;
36709;SDS011;22694;51.040;3.684;2023-02-28T06:38:17;2.70;;;1.80;;
36709;SDS011;22694;51.040;3.684;2023-02-28T06:40:44;1.85;;;1.70;;
36709;SDS011;22694;51.040;3.684;2023-02-28T06:43:10;3.30;;;1.80;;
36709;SDS011;22694;51.040;3.684;2023-02-28T06:45:42;2.75;;;1.70;;
36709;SDS011;22694;51.040;3.684;2023-02-28T06:48:08;2.53;;;1.80;;
36709;SDS011;22694;51.040;3.684;2023-02-28T06:50:35;2.45;;;2.10;;
36709;SDS011;22694;51.040;3.684;2023-02-28T06:53:01;3.38;;;1.70;;
36709;SDS011;22694;51.040;3.684;2023-02-28T06:55:26;3.40;;;2.00;;
36709;SDS011;22694;51.040;3.684;2023-02-28T06:57:52;2.33;;;1.67;;
36709;SDS011;22694;51.040;3.684;2023-02-28T07:00:19;2.92;;;2.15;;
36709;SDS011;22694;51.040;3.684;2023-02-28T07:02:45;1.75;;;1.55;;
36709;SDS011;22694;51.040;3.684;2023-02-28T07:05:12;3.28;;;1.80;;
36709;SDS011;22694;51.040;3.684;2023-02-28T07:07:38;3.13;;;2.30;;
36709;SDS011;22694;51.040;3.684;2023-02-28T07:10:08;4.35;;;1.80;;
36709;SDS011;22694;51.040;3.684;2023-02-28T07:12:36;2.95;;;1.67;;
36709;SDS011;22694;51.040;3.684;2023-02-28T07:15:02;3.13;;;1.70;;
36709;SDS011;22694;51.040;3.684;2023-02-28T07:17:31;2.00;;;1.75;;
36709;SDS011;22694;51.040;3.684;2023-02-28T07:19:57;2.40;;;1.80;;
36709;SDS011;22694;51.040;3.684;2023-02-28T07:22:22;4.50;;;1.88;;
36709;SDS011;22694;51.040;3.684;2023-02-28T07:24:48;3.60;;;1.90;;
36709;SDS011;22694;51.040;3.684;2023-02-28T07:27:13;3.58;;;2.13;;
36709;SDS011;22694;51.040;3.684;2023-02-28T07:29:49;2.17;;;1.60;;
36709;SDS011;22694;51.040;3.684;2023-02-28T07:32:15;4.35;;;2.03;;
36709;SDS011;22694;51.040;3.684;2023-02-28T07:34:41;3.05;;;2.03;;
36709;SDS011;22694;51.040;3.684;2023-02-28T07:37:06;2.15;;;1.88;;
36709;SDS011;22694;51.040;3.684;2023-02-28T07:39:32;3.70;;;2.10;;
36709;SDS011;22694;51.040;3.684;2023-02-28T07:41:58;4.55;;;2.08;;
36709;SDS011;22694;51.040;3.684;2023-02-28T07:44:24;3.60;;;1.50;;
36709;SDS011;22694;51.040;3.684;2023-02-28T07:46:51;5.55;;;1.95;;
36709;SDS011;22694;51.040;3.684;2023-02-28T07:49:17;4.57;;;1.70;;
36709;SDS011;22694;51.040;3.684;2023-02-28T07:51:43;2.65;;;1.77;;
36709;SDS011;22694;51.040;3.684;2023-02-28T07:54:09;1.90;;;1.48;;
36709;SDS011;22694;51.040;3.684;2023-02-28T07:56:34;2.92;;;1.50;;
36709;SDS011;22694;51.040;3.684;2023-02-28T07:59:00;2.22;;;1.50;;
36709;SDS011;22694;51.040;3.684;2023-02-28T08:01:26;3.50;;;1.55;;
36709;SDS011;22694;51.040;3.684;2023-02-28T08:03:52;2.97;;;1.58;;
36709;SDS011;22694;51.040;3.684;2023-02-28T08:06:20;2.45;;;1.52;;
36709;SDS011;22694;51.040;3.684;2023-02-28T08:08:47;3.60;;;1.52;;
36709;SDS011;22694;51.040;3.684;2023-02-28T08:11:13;2.58;;;1.80;;
36709;SDS011;22694;51.040;3.684;2023-02-28T08:13:41;2.22;;;1.50;;
36709;SDS011;22694;51.040;3.684;2023-02-28T08:16:10;4.03;;;1.73;;
36709;SDS011;22694;51.040;3.684;2023-02-28T08:18:36;5.65;;;1.48;;
36709;SDS011;22694;51.040;3.684;2023-02-28T08:21:09;2.97;;;1.10;;
36709;SDS011;22694;51.040;3.684;2023-02-28T08:23:35;2.83;;;1.98;;
36709;SDS011;22694;51.040;3.684;2023-02-28T08:26:01;2.15;;;1.40;;
36709;SDS011;22694;51.040;3.684;2023-02-28T08:28:27;4.15;;;1.45;;
36709;SDS011;22694;51.040;3.684;2023-02-28T08:30:53;3.88;;;1.40;;
36709;SDS011;22694;51.040;3.684;2023-02-28T08:33:19;1.67;;;1.42;;
36709;SDS011;22694;51.040;3.684;2023-02-28T08:35:45;1.95;;;1.42;;
36709;SDS011;22694;51.040;3.684;2023-02-28T08:38:10;2.30;;;1.40;;
36709;SDS011;22694;51.040;3.684;2023-02-28T08:40:36;3.63;;;1.20;;
36709;SDS011;22694;51.040;3.684;2023-02-28T08:43:01;3.05;;;1.65;;
36709;SDS011;22694;51.040;3.684;2023-02-28T08:45:27;2.20;;;1.50;;
36709;SDS011;22694;51.040;3.684;2023-02-28T08:47:54;2.85;;;1.45;;
36709;SDS011;22694;51.040;3.684;2023-02-28T08:50:20;1.92;;;1.40;;
36709;SDS011;22694;51.040;3.684;2023-02-28T08:52:46;2.22;;;1.45;;
36709;SDS011;22694;51.040;3.684;2023-02-28T08:55:12;2.47;;;1.40;;
36709;SDS011;22694;51.040;3.684;2023-02-28T08:57:37;2.05;;;1.55;;
36709;SDS011;22694;51.040;3.684;2023-02-28T09:00:03;1.58;;;1.20;;
36709;SDS011;22694;51.040;3.684;2023-02-28T09:02:30;2.13;;;1.42;;
36709;SDS011;22694;51.040;3.684;2023-02-28T09:04:56;2.22;;;1.63;;
36709;SDS011;22694;51.040;3.684;2023-02-28T09:07:23;1.90;;;1.35;;
36709;SDS011;22694;51.040;3.684;2023-02-28T09:09:49;3.00;;;1.40;;
36709;SDS011;22694;51.040;3.684;2023-02-28T09:12:23;1.58;;;1.33;;
36709;SDS011;22694;51.040;3.684;2023-02-28T09:14:50;4.15;;;1.80;;
36709;SDS011;22694;51.040;3.684;2023-02-28T09:17:16;2.53;;;1.42;;
36709;SDS011;22694;51.040;3.684;2023-02-28T09:19:42;1.80;;;1.33;;
36709;SDS011;22694;51.040;3.684;2023-02-28T09:22:08;2.30;;;1.60;;
36709;SDS011;22694;51.040;3.684;2023-02-28T09:24:35;1.73;;;1.40;;
36709;SDS011;22694;51.040;3.684;2023-02-28T09:27:02;7.22;;;1.42;;
36709;SDS011;22694;51.040;3.684;2023-02-28T09:29:27;2.95;;;1.63;;
36709;SDS011;22694;51.040;3.684;2023-02-28T09:31:53;5.38;;;1.88;;
36709;SDS011;22694;51.040;3.684;2023-02-28T09:34:19;4.25;;;1.15;;
36709;SDS011;22694;51.040;3.684;2023-02-28T09:36:44;3.85;;;1.60;;
36709;SDS011;22694;51.040;3.684;2023-02-28T09:39:10;2.95;;;1.52;;
36709;SDS011;22694;51.040;3.684;2023-02-28T09:41:42;1.90;;;1.60;;
36709;SDS011;22694;51.040;3.684;2023-02-28T09:44:31;4.45;;;1.85;;
36709;SDS011;22694;51.040;3.684;2023-02-28T09:47:05;3.05;;;1.48;;
36709;SDS011;22694;51.040;3.684;2023-02-28T09:49:34;2.85;;;1.35;;
36709;SDS011;22694;51.040;3.684;2023-02-28T09:52:12;2.00;;;1.30;;
36709;SDS011;22694;51.040;3.684;2023-02-28T09:54:41;1.85;;;1.30;;
36709;SDS011;22694;51.040;3.684;2023-02-28T09:57:19;2.72;;;1.42;;
36709;SDS011;22694;51.040;3.684;2023-02-28T10:00:04;1.27;;;1.17;;
36709;SDS011;22694;51.040;3.684;2023-02-28T10:02:46;1.63;;;1.23;;
36709;SDS011;22694;51.040;3.684;2023-02-28T10:05:18;1.63;;;1.23;;
36709;SDS011;22694;51.040;3.684;2023-02-28T10:10:38;2.60;;;1.30;;
36709;SDS011;22694;51.040;3.684;2023-02-28T10:16:12;2.97;;;1.58;;
36709;SDS011;22694;51.040;3.684;2023-02-28T10:18:49;1.70;;;1.23;;
36709;SDS011;22694;51.040;3.684;2023-02-28T10:21:27;2.00;;;1.20;;
36709;SDS011;22694;51.040;3.684;2023-02-28T10:23:59;2.92;;;1.45;;
36709;SDS011;22694;51.040;3.684;2023-02-28T10:26:38;2.73;;;1.50;;
36709;SDS011;22694;51.040;3.684;2023-02-28T10:29:08;1.65;;;1.30;;
36709;SDS011;22694;51.040;3.684;2023-02-28T10:31:35;1.77;;;1.20;;
36709;SDS011;22694;51.040;3.684;2023-02-28T10:34:01;2.28;;;1.50;;
36709;SDS011;22694;51.040;3.684;2023-02-28T10:36:28;2.25;;;1.55;;
36709;SDS011;22694;51.040;3.684;2023-02-28T10:38:54;1.83;;;1.20;;
36709;SDS011;22694;51.040;3.684;2023-02-28T10:41:27;2.00;;;1.33;;
36709;SDS011;22694;51.040;3.684;2023-02-28T10:46:47;2.50;;;1.55;;
36709;SDS011;22694;51.040;3.684;2023-02-28T10:49:19;2.50;;;1.10;;
36709;SDS011;22694;51.040;3.684;2023-02-28T10:51:47;1.85;;;1.50;;
36709;SDS011;22694;51.040;3.684;2023-02-28T10:54:28;1.52;;;1.10;;
36709;SDS011;22694;51.040;3.684;2023-02-28T10:59:52;2.58;;;1.50;;
36709;SDS011;22694;51.040;3.684;2023-02-28T11:02:38;2.83;;;1.50;;
36709;SDS011;22694;51.040;3.684;2023-02-28T11:05:27;2.55;;;1.45;;
36709;SDS011;22694;51.040;3.684;2023-02-28T11:10:58;4.22;;;1.20;;
36709;SDS011;22694;51.040;3.684;2023-02-28T11:13:34;1.42;;;0.90;;
36709;SDS011;22694;51.040;3.684;2023-02-28T11:16:06;2.72;;;1.33;;
36709;SDS011;22694;51.040;3.684;2023-02-28T11:18:53;1.88;;;1.00;;
36709;SDS011;22694;51.040;3.684;2023-02-28T11:21:29;1.33;;;1.00;;
36709;SDS011;22694;51.040;3.684;2023-02-28T11:24:05;1.95;;;1.23;;
36709;SDS011;22694;51.040;3.684;2023-02-28T11:26:42;1.92;;;1.20;;
36709;SDS011;22694;51.040;3.684;2023-02-28T11:29:29;1.27;;;0.82;;
36709;SDS011;22694;51.040;3.684;2023-02-28T11:34:41;1.25;;;0.75;;
36709;SDS011;22694;51.040;3.684;2023-02-28T11:37:12;1.38;;;0.88;;
36709;SDS011;22694;51.040;3.684;2023-02-28T11:39:43;1.05;;;0.90;;
36709;SDS011;22694;51.040;3.684;2023-02-28T11:47:38;2.05;;;1.30;;
36709;SDS011;22694;51.040;3.684;2023-02-28T11:55:38;3.80;;;1.40;;
36709;SDS011;22694;51.040;3.684;2023-02-28T12:03:54;1.45;;;1.08;;
36709;SDS011;22694;51.040;3.684;2023-02-28T12:06:30;1.35;;;1.15;;
36709;SDS011;22694;51.040;3.684;2023-02-28T12:12:17;1.10;;;0.80;;
36709;SDS011;22694;51.040;3.684;2023-02-28T12:28:49;2.03;;;0.90;;
36709;SDS011;22694;51.040;3.684;2023-02-28T12:31:26;0.80;;;0.77;;
36709;SDS011;22694;51.040;3.684;2023-02-28T12:34:00;1.05;;;0.80;;
36709;SDS011;22694;51.040;3.684;2023-02-28T12:36:49;1.13;;;0.70;;
36709;SDS011;22694;51.040;3.684;2023-02-28T12:39:20;1.55;;;0.93;;
36709;SDS011;22694;51.040;3.684;2023-02-28T12:42:03;1.20;;;0.88;;
36709;SDS011;22694;51.040;3.684;2023-02-28T12:47:14;0.70;;;0.70;;
36709;SDS011;22694;51.040;3.684;2023-02-28T12:52:18;1.70;;;0.90;;
36709;SDS011;22694;51.040;3.684;2023-02-28T12:54:55;1.55;;;0.77;;
36709;SDS011;22694;51.040;3.684;2023-02-28T13:00:20;1.83;;;0.80;;
36709;SDS011;22694;51.040;3.684;2023-02-28T13:08:16;1.00;;;0.80;;
36709;SDS011;22694;51.040;3.684;2023-02-28T13:11:01;1.02;;;0.80;;
36709;SDS011;22694;51.040;3.684;2023-02-28T13:13:27;1.25;;;0.90;;
36709;SDS011;22694;51.040;3.684;2023-02-28T13:16:08;1.70;;;0.80;;
36709;SDS011;22694;51.040;3.684;2023-02-28T13:18:36;1.05;;;0.60;;
36709;SDS011;22694;51.040;3.684;2023-02-28T13:21:05;1.65;;;0.93;;
36709;SDS011;22694;51.040;3.684;2023-02-28T13:24:36;0.98;;;0.80;;
36709;SDS011;22694;51.040;3.684;2023-02-28T13:28:57;0.60;;;0.52;;
36709;SDS011;22694;51.040;3.684;2023-02-28T13:31:24;0.90;;;0.82;;
36709;SDS011;22694;51.040;3.684;2023-02-28T13:38:48;0.50;;;0.50;;
36709;SDS011;22694;51.040;3.684;2023-02-28T13:44:06;1.40;;;0.52;;
36709;SDS011;22694;51.040;3.684;2023-02-28T13:46:36;0.80;;;0.80;;
36709;SDS011;22694;51.040;3.684;2023-02-28T13:49:25;0.63;;;0.50;;
36709;SDS011;22694;51.040;3.684;2023-02-28T13:57:52;1.45;;;0.85;;
36709;SDS011;22694;51.040;3.684;2023-02-28T14:08:53;0.57;;;0.57;;
36709;SDS011;22694;51.040;3.684;2023-02-28T14:11:28;0.68;;;0.68;;
36709;SDS011;22694;51.040;3.684;2023-02-28T14:13:59;1.45;;;0.75;;
36709;SDS011;22694;51.040;3.684;2023-02-28T14:16:27;1.02;;;0.70;;
36709;SDS011;22694;51.040;3.684;2023-02-28T14:19:19;1.20;;;0.50;;
36709;SDS011;22694;51.040;3.684;2023-02-28T14:38:00;1.08;;;0.70;;
36709;SDS011;22694;51.040;3.684;2023-02-28T14:40:32;1.00;;;0.90;;
36709;SDS011;22694;51.040;3.684;2023-02-28T14:43:04;1.05;;;0.80;;
36709;SDS011;22694;51.040;3.684;2023-02-28T14:45:34;0.88;;;0.77;;
36709;SDS011;22694;51.040;3.684;2023-02-28T14:48:02;0.90;;;0.80;;
36709;SDS011;22694;51.040;3.684;2023-02-28T14:50:34;1.10;;;0.80;;
36709;SDS011;22694;51.040;3.684;2023-02-28T14:53:02;0.77;;;0.70;;
36709;SDS011;22694;51.040;3.684;2023-02-28T14:55:29;1.17;;;0.80;;
36709;SDS011;22694;51.040;3.684;2023-02-28T14:57:58;1.65;;;0.70;;
36709;SDS011;22694;51.040;3.684;2023-02-28T15:00:28;1.95;;;0.80;;
36709;SDS011;22694;51.040;3.684;2023-02-28T15:02:56;0.90;;;0.90;;
36709;SDS011;22694;51.040;3.684;2023-02-28T15:05:25;1.00;;;0.93;;
36709;SDS011;22694;51.040;3.684;2023-02-28T15:10:39;0.85;;;0.80;;
36709;SDS011;22694;51.040;3.684;2023-02-28T15:13:12;0.90;;;0.90;;
36709;SDS011;22694;51.040;3.684;2023-02-28T15:15:41;4.22;;;1.00;;
36709;SDS011;22694;51.040;3.684;2023-02-28T15:18:21;2.50;;;0.70;;
36709;SDS011;22694;51.040;3.684;2023-02-28T15:20:51;1.38;;;0.88;;
36709;SDS011;22694;51.040;3.684;2023-02-28T15:23:19;1.42;;;1.08;;
36709;SDS011;22694;51.040;3.684;2023-02-28T15:25:46;4.45;;;1.30;;
36709;SDS011;22694;51.040;3.684;2023-02-28T15:28:14;1.65;;;0.90;;
36709;SDS011;22694;51.040;3.684;2023-02-28T15:30:53;2.70;;;1.00;;
36709;SDS011;22694;51.040;3.684;2023-02-28T15:33:23;2.90;;;1.10;;
36709;SDS011;22694;51.040;3.684;2023-02-28T15:35:50;1.15;;;0.90;;
36709;SDS011;22694;51.040;3.684;2023-02-28T15:40:55;2.05;;;1.10;;
36709;SDS011;22694;51.040;3.684;2023-02-28T15:43:23;0.90;;;0.90;;
36709;SDS011;22694;51.040;3.684;2023-02-28T15:45:54;1.05;;;0.73;;
36709;SDS011;22694;51.040;3.684;2023-02-28T15:48:22;1.10;;;1.00;;
36709;SDS011;22694;51.040;3.684;2023-02-28T15:50:56;1.80;;;1.30;;
36709;SDS011;22694;51.040;3.684;2023-02-28T15:53:32;2.67;;;1.15;;
36709;SDS011;22694;51.040;3.684;2023-02-28T15:56:03;1.33;;;0.90;;
36709;SDS011;22694;51.040;3.684;2023-02-28T15:58:32;1.20;;;1.00;;
36709;SDS011;22694;51.040;3.684;2023-02-28T16:01:07;1.88;;;1.23;;
36709;SDS011;22694;51.040;3.684;2023-02-28T16:03:55;1.20;;;1.00;;
36709;SDS011;22694;51.040;3.684;2023-02-28T16:06:33;1.35;;;1.20;;
36709;SDS011;22694;51.040;3.684;2023-02-28T16:09:03;1.20;;;1.00;;
36709;SDS011;22694;51.040;3.684;2023-02-28T16:11:29;1.20;;;0.98;;
36709;SDS011;22694;51.040;3.684;2023-02-28T16:13:57;1.55;;;0.90;;
36709;SDS011;22694;51.040;3.684;2023-02-28T16:16:24;1.48;;;1.02;;
36709;SDS011;22694;51.040;3.684;2023-02-28T16:18:50;1.20;;;1.00;;
36709;SDS011;22694;51.040;3.684;2023-02-28T16:21:16;1.90;;;1.25;;
36709;SDS011;22694;51.040;3.684;2023-02-28T16:23:42;1.65;;;1.10;;
36709;SDS011;22694;51.040;3.684;2023-02-28T16:26:08;1.58;;;1.30;;
36709;SDS011;22694;51.040;3.684;2023-02-28T16:28:43;1.88;;;1.30;;
36709;SDS011;22694;51.040;3.684;2023-02-28T16:31:09;1.35;;;1.10;;
36709;SDS011;22694;51.040;3.684;2023-02-28T16:33:41;1.67;;;1.13;;
36709;SDS011;22694;51.040;3.684;2023-02-28T16:36:14;1.08;;;0.98;;
36709;SDS011;22694;51.040;3.684;2023-02-28T16:38:41;1.80;;;1.10;;
36709;SDS011;22694;51.040;3.684;2023-02-28T16:41:07;1.25;;;1.10;;
36709;SDS011;22694;51.040;3.684;2023-02-28T16:43:42;1.00;;;0.90;;
36709;SDS011;22694;51.040;3.684;2023-02-28T16:46:10;3.97;;;1.40;;
36709;SDS011;22694;51.040;3.684;2023-02-28T16:48:37;2.25;;;1.10;;
36709;SDS011;22694;51.040;3.684;2023-02-28T16:51:03;2.13;;;1.30;;
36709;SDS011;22694;51.040;3.684;2023-02-28T16:53:29;3.15;;;1.05;;
36709;SDS011;22694;51.040;3.684;2023-02-28T16:55:55;1.10;;;1.10;;
36709;SDS011;22694;51.040;3.684;2023-02-28T16:58:20;1.02;;;0.93;;
36709;SDS011;22694;51.040;3.684;2023-02-28T17:00:50;2.35;;;1.10;;
36709;SDS011;22694;51.040;3.684;2023-02-28T17:03:24;1.90;;;1.17;;
36709;SDS011;22694;51.040;3.684;2023-02-28T17:05:51;1.20;;;1.10;;
36709;SDS011;22694;51.040;3.684;2023-02-28T17:08:17;2.42;;;1.20;;
36709;SDS011;22694;51.040;3.684;2023-02-28T17:10:43;1.95;;;1.30;;
36709;SDS011;22694;51.040;3.684;2023-02-28T17:13:09;1.23;;;0.93;;
36709;SDS011;22694;51.040;3.684;2023-02-28T17:15:35;2.20;;;1.38;;
36709;SDS011;22694;51.040;3.684;2023-02-28T17:18:02;2.05;;;1.20;;
36709;SDS011;22694;51.040;3.684;2023-02-28T17:20:29;1.27;;;1.17;;
36709;SDS011;22694;51.040;3.684;2023-02-28T17:22:55;1.88;;;1.40;;
36709;SDS011;22694;51.040;3.684;2023-02-28T17:25:22;1.40;;;1.30;;
36709;SDS011;22694;51.040;3.684;2023-02-28T17:27:48;1.92;;;1.25;;
36709;SDS011;22694;51.040;3.684;2023-02-28T17:32:40;1.55;;;1.02;;
36709;SDS011;22694;51.040;3.684;2023-02-28T17:35:06;2.63;;;1.20;;
36709;SDS011;22694;51.040;3.684;2023-02-28T17:37:32;3.55;;;1.55;;